Latest Weather Observations for Mount Lofty

IDS60801

Issued at 7:01 pm CST Wednesday 27 May 2015 (issued every 30 minutes, with the page automatically refreshed every 10 minutes)

About weather observations | Map of weather stations | Latest weather observations for SA | Other Formats
Station Details ID: 023842 Name: MOUNT LOFTY Lat: -34.98 Lon: 138.71 Height: 685.0 m
Data from the previous 72 hours. | See also: Recent months at Mount Lofty
Date/Time
CST
Temp
°C
App
Temp
°C
Dew
Point
Rel
Hum
%
Delta-T
°C
Wind Press
QNH
hPa
Press
MSL
hPa
Rain
since 9 am
mm
Dir
 
Spd
km/h
Gust
km/h
Spd
kts
Gust
kts
27/07:00pm 11.2 9.2 8.8 85 1.2 NNW 9 15 5 8 - - 0.0
27/06:30pm 11.2 9.3 8.9 86 1.2 NW 9 17 5 9 - - 0.0
27/06:00pm 11.3 9.0 9.0 86 1.2 NNW 11 17 6 9 - - 0.0
27/05:30pm 11.2 9.4 9.5 89 0.9 NW 9 15 5 8 - - 0.0
27/05:00pm 11.8 10.0 9.5 86 1.2 NW 9 17 5 9 - - 0.0
27/04:30pm 12.8 11.4 9.6 81 1.7 NW 7 13 4 7 - - 0.0
27/04:00pm 13.2 11.5 9.8 80 1.8 NW 9 17 5 9 - - 0.0
27/03:30pm 13.4 11.2 9.5 77 2.1 WNW 11 19 6 10 - - 0.0
27/03:00pm 13.3 11.4 9.2 76 2.2 WNW 9 19 5 10 - - 0.0
27/02:30pm 13.6 11.1 9.6 77 2.1 WNW 13 28 7 15 - - 0.0
27/02:00pm 13.3 10.7 9.5 78 2.0 WNW 13 22 7 12 - - 0.0
27/01:30pm 12.9 10.3 9.5 80 1.8 WNW 13 22 7 12 - - 0.0
27/01:00pm 13.1 10.3 10.1 82 1.6 WNW 15 24 8 13 - - 0.0
27/12:30pm 13.2 10.4 10.0 81 1.7 WNW 15 26 8 14 - - 0.0
27/12:00pm 12.6 9.4 9.8 83 1.5 NW 17 26 9 14 - - 0.0
27/11:30am 12.2 9.4 9.9 86 1.2 WNW 15 26 8 14 - - 0.0
27/11:00am 12.1 10.0 9.8 86 1.2 WNW 11 24 6 13 - - 0.0
27/10:30am 12.3 10.7 10.2 87 1.1 NW 9 17 5 9 - - 0.0
27/10:00am 11.1 8.9 9.5 90 0.8 NW 11 17 6 9 - - 0.0
27/09:30am 10.7 8.8 9.1 90 0.8 NW 9 19 5 10 - - 0.0
27/09:00am 10.2 8.2 8.6 90 0.8 NW 9 17 5 9 - - 0.0
27/08:30am 9.9 7.5 8.5 91 0.7 NW 11 19 6 10 - - 0.0
27/08:00am 9.6 6.7 8.2 91 0.7 NW 13 20 7 11 - - 0.0
27/07:30am 9.6 6.7 8.2 91 0.7 NW 13 20 7 11 - - 0.0
27/07:00am 9.7 7.5 8.0 89 0.9 NW 9 17 5 9 - - 0.0
27/06:30am 10.0 7.5 8.1 88 1.0 WNW 11 15 6 8 - - 0.0
27/06:00am 10.1 7.2 8.0 87 1.1 WNW 13 20 7 11 - - 0.0
27/05:30am 9.9 7.0 8.0 88 1.0 WNW 13 26 7 14 - - 0.0
27/05:00am 10.1 6.8 8.2 88 1.0 WNW 15 26 8 14 - - 0.0
27/04:30am 10.1 6.4 7.9 86 1.1 WNW 17 30 9 16 - - 0.0
27/04:00am 10.6 6.9 7.8 83 1.4 WNW 17 24 9 13 - - 0.0
27/03:30am 10.8 7.5 8.0 83 1.4 WNW 15 28 8 15 - - 0.0
27/03:00am 11.2 7.9 8.1 81 1.6 WNW 15 24 8 13 - - 0.0
27/02:30am 11.5 8.2 8.2 80 1.7 WNW 15 30 8 16 - - 0.0
27/02:00am 11.2 7.9 8.1 81 1.6 NW 15 24 8 13 - - 0.0
27/01:30am 10.9 7.9 7.6 80 1.7 NW 13 20 7 11 - - 0.0
27/01:00am 11.1 7.6 7.4 78 1.8 NW 15 24 8 13 - - 0.0
27/12:30am 10.9 7.9 7.8 81 1.6 NW 13 22 7 12 - - 0.0
27/12:00am 10.4 8.3 8.3 87 1.1 NW 9 15 5 8 - - 0.0
 
Date/Time
CST
Temp
°C
App
Temp
°C
Dew
Point
Rel
Hum
%
Delta-T
°C
Wind Press
QNH
hPa
Press
MSL
hPa
Rain
since 9 am
mm
Dir
 
Spd
km/h
Gust
km/h
Spd
kts
Gust
kts
26/11:30pm 10.4 8.7 8.5 88 1.0 WNW 7 13 4 7 - - 0.0
26/11:00pm 10.6 8.4 8.0 84 1.3 NW 9 13 5 7 - - 0.0
26/10:30pm 11.1 9.3 7.8 80 1.7 WNW 7 13 4 7 - - 0.0
26/10:00pm 11.4 9.6 7.9 79 1.8 W 7 15 4 8 - - 0.0
26/09:30pm 12.0 9.3 7.3 73 2.4 WNW 11 20 6 11 - - 0.0
26/09:00pm 11.9 8.8 7.2 73 2.4 WNW 13 22 7 12 - - 0.0
26/08:30pm 12.3 9.7 7.6 73 2.4 WNW 11 17 6 9 - - 0.0
26/08:00pm 12.7 9.8 8.0 73 2.4 WNW 13 22 7 12 - - 0.0
26/07:30pm 13.2 10.2 7.9 70 2.7 NW 13 22 7 12 - - 0.0
26/07:00pm 13.2 10.6 7.9 70 2.7 NW 11 20 6 11 - - 0.0
26/06:30pm 12.9 10.7 7.8 71 2.6 NW 9 15 5 8 - - 0.0
26/06:00pm 12.6 10.7 7.7 72 2.5 NW 7 11 4 6 - - 0.0
26/05:30pm 12.6 10.7 7.7 72 2.5 NW 7 11 4 6 - - 0.0
26/05:00pm 13.0 11.2 7.9 71 2.6 NW 7 11 4 6 - - 0.0
26/04:30pm 13.5 11.6 7.7 68 3.0 NW 7 11 4 6 - - 0.0
26/04:00pm 13.7 12.0 8.3 70 2.8 NW 7 13 4 7 - - 0.0
26/03:30pm 15.2 13.1 8.2 63 3.7 NW 9 15 5 8 - - 0.0
26/03:00pm 14.4 12.2 7.9 65 3.4 NW 9 20 5 11 - - 0.0
26/02:30pm 14.4 12.6 7.9 65 3.4 WNW 7 17 4 9 - - 0.0
26/02:00pm 14.8 13.1 8.5 66 3.3 NW 7 15 4 8 - - 0.0
26/01:30pm 14.0 11.8 7.8 66 3.2 NW 9 17 5 9 - - 0.0
26/01:00pm 13.8 11.2 7.8 67 3.1 NW 11 17 6 9 - - 0.0
26/12:30pm 14.2 11.6 7.9 66 3.2 NW 11 22 6 12 - - 0.0
26/12:00pm 14.7 12.6 8.2 65 3.4 NW 9 17 5 9 - - 0.0
26/11:30am 13.8 11.1 7.3 65 3.3 NNW 11 19 6 10 - - 0.0
26/11:00am 13.6 11.3 7.4 66 3.1 NW 9 17 5 9 - - 0.0
26/10:30am 13.6 10.9 7.2 65 3.2 NW 11 17 6 9 - - 0.0
26/10:00am 12.7 9.9 7.0 68 2.9 WNW 11 19 6 10 - - 0.0
26/09:30am 11.6 9.1 6.7 72 2.4 NW 9 17 5 9 - - 0.0
26/09:00am 11.5 9.0 6.6 72 2.4 NW 9 17 5 9 - - 0.0
26/08:30am 11.6 9.4 6.3 70 2.6 NNW 7 15 4 8 - - 0.0
26/08:00am 11.8 9.2 6.1 68 2.8 NNW 9 17 5 9 - - 0.0
26/07:30am 11.7 9.5 6.0 68 2.8 N 7 11 4 6 - - 0.0
26/07:00am 11.7 9.4 5.6 66 2.9 N 7 13 4 7 - - 0.0
26/06:30am 11.6 8.5 5.7 67 2.9 NNW 11 17 6 9 - - 0.0
26/06:00am 11.2 8.1 5.7 69 2.6 NNW 11 17 6 9 - - 0.0
26/05:30am 11.4 8.0 5.7 68 2.8 NNW 13 20 7 11 - - 0.0
26/05:00am 11.6 8.2 5.7 67 2.9 NNW 13 19 7 10 - - 0.0
26/04:30am 11.8 8.4 5.9 67 2.9 NNW 13 22 7 12 - - 0.0
26/04:00am 11.8 8.4 5.9 67 2.9 NNW 13 22 7 12 - - 0.0
26/03:30am 12.1 9.1 6.2 67 2.9 N 11 20 6 11 - - 0.0
26/03:00am 11.6 8.5 5.7 67 2.9 N 11 24 6 13 - - 0.0
26/02:30am 11.5 9.0 6.4 71 2.5 N 9 17 5 9 - - 0.0
26/02:00am 11.7 8.5 6.8 72 2.4 N 13 19 7 10 - - 0.0
26/01:30am 11.6 9.1 6.7 72 2.4 N 9 20 5 11 - - 0.0
26/01:00am 11.8 9.8 6.9 72 2.4 NNE 7 15 4 8 - - 0.0
26/12:30am 11.2 9.2 6.9 75 2.1 ENE 7 15 4 8 - - 0.0
26/12:00am 11.1 9.1 7.0 76 2.0 ENE 7 17 4 9 - - 0.0
 
Date/Time
CST
Temp
°C
App
Temp
°C
Dew
Point
Rel
Hum
%
Delta-T
°C
Wind Press
QNH
hPa
Press
MSL
hPa
Rain
since 9 am
mm
Dir
 
Spd
km/h
Gust
km/h
Spd
kts
Gust
kts
25/11:30pm 11.5 9.1 7.0 74 2.2 NE 9 20 5 11 - - 0.0
25/11:00pm 11.8 9.0 6.9 72 2.4 NNE 11 19 6 10 - - 0.0
25/10:30pm 11.6 9.6 7.1 74 2.2 NNE 7 17 4 9 - - 0.0
25/10:00pm 11.0 9.1 6.7 75 2.1 E 6 11 3 6 - - 0.0
25/09:30pm 11.1 9.0 6.6 74 2.2 E 7 22 4 12 - - 0.0
25/09:00pm 10.7 8.7 6.3 74 2.1 E 6 9 3 5 - - 0.0
25/08:30pm 10.4 8.4 6.2 75 2.0 E 6 11 3 6 - - 0.0
25/08:00pm 10.6 9.0 6.2 74 2.1 E 4 9 2 5 - - 0.0
25/07:30pm 11.0 9.2 5.5 69 2.6 E 4 7 2 4 - - 0.0
25/07:00pm 11.0 8.9 5.7 70 2.5 E 6 9 3 5 - - 0.0
25/06:30pm 10.6 9.1 6.9 78 1.8 E 4 9 2 5 - - 0.0
25/06:00pm 10.5 9.1 7.2 80 1.6 ESE 4 7 2 4 - - 0.0
25/05:30pm 11.4 9.9 6.7 73 2.3 ESE 4 6 2 3 - - 0.0
25/05:00pm 12.2 10.6 6.3 67 2.9 NE 4 6 2 3 - - 0.0
25/04:30pm 12.6 11.9 6.9 68 2.8 CALM 0 0 0 0 - - 0.0
25/04:00pm 13.5 12.8 6.8 64 3.4 CALM 0 0 0 0 - - 0.0
25/03:30pm 14.6 13.1 6.7 59 4.0 ENE 4 6 2 3 - - 0.0
25/03:00pm 14.6 13.1 6.9 60 3.9 WNW 4 6 2 3 - - 0.0
25/02:30pm 14.4 12.5 6.5 59 4.0 N 6 13 3 7 - - 0.0
25/02:00pm 14.3 12.3 4.3 51 4.8 NE 4 9 2 5 - - 0.0
25/01:30pm 14.4 12.8 6.3 58 4.0 ENE 4 9 2 5 - - 0.0
25/01:00pm 13.9 12.3 6.5 61 3.7 NE 4 9 2 5 - - 0.0
25/12:30pm 14.1 12.6 6.9 62 3.6 NW 4 7 2 4 - - 0.0
25/12:00pm 13.4 11.1 5.8 60 3.7 NNW 7 15 4 8 - - 0.0
25/11:30am 13.3 11.0 5.5 59 3.8 NW 7 13 4 7 - - 0.0
25/11:00am 13.0 10.4 5.9 62 3.5 NNW 9 17 5 9 - - 0.0
25/10:30am 12.7 10.5 6.1 64 3.2 NW 7 13 4 7 - - 0.0
25/10:00am 12.3 10.0 5.9 65 3.1 NNW 7 13 4 7 - - 0.0
25/09:30am 11.6 9.3 5.5 66 2.9 NNW 7 13 4 7 - - 0.0
25/09:00am 11.0 7.9 5.7 70 2.5 NNW 11 17 6 9 - - 0.0
25/08:30am 10.1 6.9 4.9 70 2.4 NNW 11 19 6 10 - - 0.0
25/08:00am 10.3 7.1 4.9 69 2.5 NNW 11 19 6 10 - - 0.0
25/07:30am 10.3 7.1 4.9 69 2.5 NNW 11 19 6 10 - - 0.0
25/07:00am 10.4 7.4 4.3 66 2.8 NNW 9 13 5 7 - - 0.0
25/06:30am 10.3 7.3 4.2 66 2.8 NNW 9 13 5 7 - - 0.0
25/06:00am 10.3 7.7 4.0 65 2.9 NNW 7 11 4 6 - - 0.0
25/05:30am 10.3 7.1 3.3 62 3.2 NNW 9 13 5 7 - - 0.0
25/05:00am 10.4 7.3 3.4 62 3.2 NNW 9 15 5 8 - - 0.0
25/04:30am 10.6 8.0 4.1 64 3.0 NNW 7 15 4 8 - - 0.0
25/04:00am 10.5 7.8 3.8 63 3.1 N 7 13 4 7 - - 0.0
25/03:30am 10.4 7.4 3.9 64 3.0 N 9 15 5 8 - - 0.0
25/03:00am 10.1 7.1 4.0 66 2.8 N 9 15 5 8 - - 0.0
25/02:30am 10.1 7.1 4.3 67 2.7 NNW 9 11 5 6 - - 0.0
25/02:00am 10.3 7.7 4.2 66 2.8 N 7 11 4 6 - - 0.0
25/01:30am 10.6 7.9 3.9 63 3.1 N 7 13 4 7 - - 0.0
25/01:00am 10.1 7.5 4.0 66 2.8 N 7 13 4 7 - - 0.0
25/12:30am 10.1 7.6 4.0 66 2.8 NNE 6 9 3 5 - - 0.0
25/12:00am 10.1 8.1 4.5 68 2.6 E 4 9 2 5 - - 0.0
 
Date/Time
CST
Temp
°C
App
Temp
°C
Dew
Point
Rel
Hum
%
Delta-T
°C
Wind Press
QNH
hPa
Press
MSL
hPa
Rain
since 9 am
mm
Dir
 
Spd
km/h
Gust
km/h
Spd
kts
Gust
kts
24/11:30pm 9.4 7.8 4.6 72 2.2 ESE 2 6 1 3 - - 0.0
24/11:00pm 9.7 8.1 4.5 70 2.4 ENE 2 6 1 3 - - 0.0
24/10:30pm 9.6 8.0 4.4 70 2.4 E 2 7 1 4 - - 0.0
24/10:00pm 9.4 7.7 4.0 69 2.5 ESE 2 6 1 3 - - 0.0
24/09:30pm 9.1 7.4 4.1 71 2.3 E 2 4 1 2 - - 0.0
24/09:00pm 9.0 7.4 4.4 73 2.1 E 2 6 1 3 - - 0.0
24/08:30pm 9.0 6.4 4.4 73 2.1 ESE 7 13 4 7 - - 0.0
24/08:00pm 8.8 6.4 4.2 73 2.1 ESE 6 7 3 4 - - 0.0
24/07:30pm 10.3 8.2 3.8 64 3.0 N 4 6 2 3 - - 0.0

Other Formats:

Comma delimited format used in spreadsheet applications
http://www.bom.gov.au/fwo/IDS60801/IDS60801.95678.axf

JavaScript Object Notation format (JSON) in row-major order
http://www.bom.gov.au/fwo/IDS60801/IDS60801.95678.json